createdAt,value
2017-12-28T00:00:08.991Z,74.00
2017-12-28T00:05:10.521Z,74.20
2017-12-28T00:10:12.759Z,74.10
2017-12-28T00:15:14.257Z,74.00
2017-12-28T00:20:15.768Z,75.00
2017-12-28T00:25:17.251Z,75.50
2017-12-28T00:30:18.860Z,76.40
2017-12-28T00:35:20.397Z,76.70
2017-12-28T00:40:22.017Z,77.40
2017-12-28T00:45:24.289Z,77.80
2017-12-28T00:50:25.857Z,77.70
2017-12-28T00:55:27.402Z,78.20
2017-12-28T01:00:28.950Z,78.40
2017-12-28T01:05:30.509Z,80.20
2017-12-28T01:10:32.001Z,82.10
2017-12-28T01:15:33.605Z,83.00
2017-12-28T01:20:35.888Z,84.30
2017-12-28T01:25:38.185Z,84.60
2017-12-28T01:30:40.529Z,84.60
2017-12-28T01:35:42.084Z,84.60
2017-12-28T01:40:43.631Z,84.60
2017-12-28T01:45:45.184Z,84.20
2017-12-28T01:50:46.709Z,84.40
2017-12-28T01:55:48.253Z,84.20
2017-12-28T02:00:49.794Z,84.00
2017-12-28T02:05:58.325Z,84.20
2017-12-28T02:10:59.934Z,84.00
2017-12-28T02:16:01.434Z,84.10
2017-12-28T02:21:03.723Z,84.40
2017-12-28T02:26:05.973Z,84.00
2017-12-28T02:31:07.474Z,84.00
2017-12-28T02:36:09.753Z,84.20
2017-12-28T02:41:12.033Z,84.20
2017-12-28T02:46:14.316Z,83.80
2017-12-28T02:51:15.817Z,83.70
2017-12-28T02:56:17.389Z,83.70
2017-12-28T03:01:18.934Z,84.10
2017-12-28T03:06:21.204Z,83.90
2017-12-28T03:11:22.731Z,83.70
2017-12-28T03:16:24.239Z,82.60
2017-12-28T03:21:25.725Z,78.50
2017-12-28T03:26:27.964Z,77.00
2017-12-28T03:31:29.485Z,76.80
2017-12-28T03:36:31.025Z,76.30
2017-12-28T03:41:33.320Z,75.00
2017-12-28T03:46:35.597Z,73.90
2017-12-28T03:51:37.888Z,73.60
2017-12-28T03:56:40.120Z,73.30
2017-12-28T04:01:41.613Z,73.30
2017-12-28T04:06:43.125Z,72.30
2017-12-28T04:11:44.697Z,71.20
2017-12-28T04:16:46.207Z,72.10
2017-12-28T04:21:47.744Z,72.90
2017-12-28T04:26:49.287Z,72.40
2017-12-28T04:31:51.517Z,71.80
2017-12-28T04:36:53.037Z,71.70
2017-12-28T04:41:55.337Z,72.50
2017-12-28T04:46:56.880Z,72.50
2017-12-28T04:51:59.176Z,72.80
2017-12-28T04:57:00.707Z,72.70
2017-12-28T05:02:02.222Z,72.90
2017-12-28T05:07:03.700Z,72.90
2017-12-28T05:12:05.204Z,72.80
2017-12-28T05:17:06.809Z,73.00
2017-12-28T05:22:09.120Z,72.70
2017-12-28T05:27:10.673Z,72.70
2017-12-28T05:32:12.232Z,72.30
2017-12-28T05:37:13.752Z,72.40
2017-12-28T05:42:15.246Z,72.40
2017-12-28T05:47:16.804Z,72.60
2017-12-28T05:52:18.337Z,72.50
2017-12-28T05:57:19.855Z,73.30
2017-12-28T06:02:22.101Z,72.90
2017-12-28T06:07:23.574Z,72.90
2017-12-28T06:12:25.112Z,73.60
2017-12-28T06:17:26.615Z,73.20
2017-12-28T06:22:28.177Z,73.20
2017-12-28T06:27:29.659Z,73.80
2017-12-28T06:32:31.201Z,73.30
2017-12-28T06:37:32.756Z,73.90
2017-12-28T06:42:34.279Z,73.90
2017-12-28T06:47:36.618Z,73.90
2017-12-28T06:52:38.101Z,73.70
2017-12-28T06:57:39.579Z,73.20
2017-12-28T07:02:41.065Z,73.00
2017-12-28T07:07:43.301Z,74.00
2017-12-28T07:12:44.796Z,73.90
2017-12-28T07:17:46.329Z,73.40
2017-12-28T07:22:47.827Z,73.20
2017-12-28T07:27:49.369Z,73.30
2017-12-28T07:32:50.938Z,73.00
2017-12-28T07:37:53.152Z,72.50
2017-12-28T07:42:54.688Z,72.50
2017-12-28T07:47:56.217Z,72.20
2017-12-28T07:52:57.848Z,71.30
2017-12-28T07:57:59.402Z,71.60
2017-12-28T08:03:00.919Z,69.60
2017-12-28T08:08:03.136Z,70.30
2017-12-28T08:13:04.700Z,70.30
2017-12-28T08:18:06.232Z,71.00
2017-12-28T08:23:08.566Z,71.10
2017-12-28T08:28:10.117Z,71.10
2017-12-28T08:33:11.625Z,71.10
2017-12-28T08:38:13.149Z,72.10
2017-12-28T08:43:14.782Z,72.40
2017-12-28T08:48:17.060Z,73.20
2017-12-28T08:53:19.345Z,74.30
2017-12-28T08:58:20.860Z,74.20
2017-12-28T09:03:22.384Z,75.30
2017-12-28T09:08:24.640Z,77.80
2017-12-28T09:13:26.176Z,77.70
2017-12-28T09:18:27.734Z,75.70
2017-12-28T09:23:29.352Z,74.30
2017-12-28T09:28:30.896Z,74.20
2017-12-28T09:33:32.377Z,75.50
2017-12-28T09:38:33.831Z,75.00
2017-12-28T09:43:35.326Z,74.90
2017-12-28T09:48:36.885Z,75.00
2017-12-28T09:53:38.426Z,74.80
2017-12-28T09:58:39.937Z,74.60
2017-12-28T10:03:41.468Z,74.20
2017-12-28T10:08:42.993Z,73.50
2017-12-28T10:13:45.261Z,72.70
2017-12-28T10:18:47.538Z,73.20
2017-12-28T10:23:49.127Z,73.20
2017-12-28T10:28:52.295Z,72.30
2017-12-28T10:33:53.815Z,72.30
2017-12-28T10:38:55.417Z,72.90
2017-12-28T10:43:56.976Z,73.80
2017-12-28T10:48:58.512Z,74.00
2017-12-28T10:54:00.047Z,72.70
2017-12-28T10:59:01.596Z,72.10
2017-12-28T11:04:03.141Z,70.00
2017-12-28T11:09:04.640Z,70.30
2017-12-28T11:14:06.227Z,70.90
2017-12-28T11:19:07.760Z,72.10
2017-12-28T11:24:09.288Z,72.60
2017-12-28T11:29:10.783Z,69.60
2017-12-28T11:34:12.290Z,70.10
2017-12-28T11:39:13.879Z,72.30
2017-12-28T11:44:16.149Z,69.20
2017-12-28T11:49:17.682Z,69.10
2017-12-28T11:54:26.336Z,68.80
2017-12-28T11:59:33.574Z,63.10
2017-12-28T12:04:41.222Z,64.80
2017-12-28T12:09:48.727Z,63.90
2017-12-28T12:14:50.240Z,61.10
2017-12-28T12:19:51.761Z,59.90
2017-12-28T12:24:53.296Z,62.30
2017-12-28T12:29:54.836Z,63.00
2017-12-28T12:34:56.380Z,63.10
2017-12-28T12:39:58.025Z,64.20
2017-12-28T12:44:59.564Z,65.00
2017-12-28T12:50:01.084Z,64.40
2017-12-28T12:55:02.586Z,64.60
2017-12-28T13:00:04.854Z,64.20
2017-12-28T13:05:06.409Z,64.20
2017-12-28T13:10:07.932Z,63.50
2017-12-28T13:15:09.493Z,65.70
2017-12-28T13:20:11.039Z,69.30
2017-12-28T13:25:13.336Z,70.90
2017-12-28T13:30:15.611Z,71.70
2017-12-28T13:35:17.904Z,72.20
2017-12-28T13:40:20.181Z,72.80
2017-12-28T13:45:22.475Z,67.70
2017-12-28T13:50:24.728Z,71.20
2017-12-28T13:55:26.227Z,71.20
2017-12-28T14:00:28.505Z,65.90
2017-12-28T14:05:30.821Z,65.00
2017-12-28T14:10:32.352Z,65.00
2017-12-28T14:15:34.633Z,66.40
2017-12-28T14:20:36.156Z,66.40
2017-12-28T14:25:37.750Z,65.60
2017-12-28T14:30:39.361Z,64.50
2017-12-28T14:35:40.932Z,64.80
2017-12-28T14:40:42.422Z,64.20
2017-12-28T14:45:43.976Z,60.90
2017-12-28T14:50:45.514Z,60.70
2017-12-28T14:55:47.707Z,59.30
2017-12-28T15:00:49.922Z,58.90
2017-12-28T15:05:58.432Z,58.90
2017-12-28T15:11:00.016Z,59.40
2017-12-28T15:16:01.523Z,58.90
2017-12-28T15:21:03.022Z,59.20
2017-12-28T15:26:05.323Z,60.10
2017-12-28T15:31:06.842Z,60.10
2017-12-28T15:36:08.460Z,60.80
2017-12-28T15:41:16.986Z,60.10
2017-12-28T15:46:18.737Z,60.60
2017-12-28T15:51:21.018Z,60.40
2017-12-28T15:56:22.552Z,60.40
2017-12-28T16:01:24.090Z,61.20
2017-12-28T16:06:25.633Z,60.80
2017-12-28T16:11:27.930Z,60.40
2017-12-28T16:16:29.471Z,60.40
2017-12-28T16:21:31.013Z,59.70
2017-12-28T16:26:32.865Z,59.60
2017-12-28T16:31:34.417Z,59.40
2017-12-28T16:36:35.956Z,59.80
2017-12-28T16:41:38.228Z,60.80
2017-12-28T16:46:39.775Z,60.60
2017-12-28T16:51:41.477Z,61.70
2017-12-28T16:56:43.749Z,63.00
2017-12-28T17:01:45.273Z,62.80
2017-12-28T17:06:46.793Z,63.50
2017-12-28T17:11:48.306Z,64.70
2017-12-28T17:16:49.912Z,65.50
2017-12-28T17:21:51.502Z,66.20
2017-12-28T17:26:54.006Z,66.60
2017-12-28T17:31:56.309Z,66.30
2017-12-28T17:36:58.041Z,66.00
2017-12-28T17:41:59.627Z,66.30
2017-12-28T17:47:01.953Z,67.20
2017-12-28T17:52:03.596Z,68.00
2017-12-28T17:57:05.186Z,67.80
2017-12-28T18:02:06.745Z,68.30
2017-12-28T18:07:09.124Z,68.70
2017-12-28T18:12:10.632Z,69.20
2017-12-28T18:17:12.261Z,70.10
2017-12-28T18:22:13.804Z,70.20
2017-12-28T18:27:16.127Z,69.30
2017-12-28T18:32:17.884Z,69.30
2017-12-28T18:37:19.452Z,68.70
2017-12-28T18:42:20.985Z,67.70
2017-12-28T18:47:22.613Z,67.50
2017-12-28T18:52:24.126Z,67.40
2017-12-28T18:57:25.721Z,67.40
2017-12-28T19:02:27.243Z,67.70
2017-12-28T19:07:28.778Z,68.20
2017-12-28T19:12:30.331Z,69.10
2017-12-28T19:17:31.920Z,69.70
2017-12-28T19:22:33.467Z,70.20
2017-12-28T19:27:35.039Z,71.80
2017-12-28T19:32:36.669Z,71.80
2017-12-28T19:37:38.210Z,72.30
2017-12-28T19:42:39.784Z,72.50
2017-12-28T19:47:41.342Z,72.70
2017-12-28T19:52:42.904Z,72.70
2017-12-28T19:57:44.429Z,73.00
2017-12-28T20:02:46.836Z,73.20
2017-12-28T20:07:48.521Z,73.10
2017-12-28T20:12:50.126Z,73.20
2017-12-28T20:17:51.725Z,72.90
2017-12-28T20:22:53.280Z,73.00
2017-12-28T20:27:55.585Z,72.20
2017-12-28T20:32:57.882Z,72.90
2017-12-28T20:37:59.417Z,73.00
2017-12-28T20:43:01.704Z,73.50
2017-12-28T20:48:04.046Z,73.80
2017-12-28T20:53:05.598Z,73.80
2017-12-28T20:58:07.160Z,73.90
2017-12-28T21:03:08.710Z,73.60
2017-12-28T21:08:11.044Z,73.50
2017-12-28T21:13:12.533Z,73.40
2017-12-28T21:18:14.076Z,73.30
2017-12-28T21:23:17.011Z,73.10
2017-12-28T21:28:19.447Z,72.90
2017-12-28T21:33:21.578Z,72.90
2017-12-28T21:38:23.533Z,72.60
2017-12-28T21:43:25.279Z,72.00
2017-12-28T21:48:26.828Z,72.00
2017-12-28T21:53:28.582Z,72.20
2017-12-28T21:58:30.852Z,72.60
2017-12-28T22:03:32.531Z,72.60
2017-12-28T22:08:34.802Z,72.50
2017-12-28T22:13:36.484Z,72.50
2017-12-28T22:18:38.771Z,73.10
2017-12-28T22:23:41.021Z,73.20
2017-12-28T22:28:42.550Z,73.20
2017-12-28T22:33:44.096Z,73.30
2017-12-28T22:38:46.386Z,73.70
2017-12-28T22:43:48.679Z,73.90
2017-12-28T22:48:50.877Z,74.90
2017-12-28T22:53:52.371Z,74.80
2017-12-28T22:58:53.872Z,75.40
2017-12-28T23:03:55.425Z,75.30
2017-12-28T23:08:56.967Z,75.70
2017-12-28T23:13:58.443Z,75.90
2017-12-28T23:18:59.924Z,76.20
2017-12-28T23:24:01.426Z,76.50
2017-12-28T23:29:03.784Z,76.30
2017-12-28T23:34:05.307Z,76.30
2017-12-28T23:39:06.942Z,76.10
2017-12-28T23:44:08.448Z,76.30
2017-12-28T23:49:10.735Z,76.50
2017-12-28T23:54:12.218Z,76.80
2017-12-28T23:59:13.686Z,76.30
